Time;durP1;ratioP1;P1;durP2;ratioP2;P2;SDS_P1;SDS_P2;PMS_P1;PMS_P2;Temp;Humidity;BMP_temperature;BMP_pressure;BME280_temperature;BME280_humidity;BME280_pressure;Samples;Min_cycle;Max_cycle;Signal;HPM_P1;HPM_P2
2023/04/05 00:01:01;;;;;;;8.25;3.65;;;-0.40;99.90;;;;;;5097938;28;20039;-65
2023/04/05 00:03:27;;;;;;;7.57;3.85;;;-0.40;99.90;;;;;;5096966;28;20040;-65
2023/04/05 00:05:53;;;;;;;11.00;4.13;;;-0.50;99.90;;;;;;5093963;28;20101;-65
2023/04/05 00:08:22;;;;;;;6.22;3.72;;;-0.50;99.90;;;;;;5096538;28;20031;-65
2023/04/05 00:10:49;;;;;;;7.95;3.38;;;-0.50;99.90;;;;;;5096143;28;20048;-65
2023/04/05 00:13:15;;;;;;;6.47;3.50;;;-0.60;99.90;;;;;;5096335;28;20459;-65
2023/04/05 00:15:40;;;;;;;9.48;4.03;;;-0.60;99.90;;;;;;5088037;28;20126;-65
2023/04/05 00:18:06;;;;;;;6.85;3.55;;;-0.60;99.90;;;;;;5091911;28;20794;-65
2023/04/05 00:20:36;;;;;;;5.70;4.18;;;-0.60;99.90;;;;;;5075722;28;20086;-65
2023/04/05 00:23:02;;;;;;;12.25;3.65;;;-0.60;99.90;;;;;;5078304;28;20146;-65
2023/04/05 00:25:27;;;;;;;7.47;4.13;;;-0.70;99.90;;;;;;5076270;28;20677;-65
2023/04/05 00:27:53;;;;;;;13.00;4.00;;;-0.60;99.90;;;;;;5076412;28;20076;-66
2023/04/05 00:30:22;;;;;;;7.10;3.85;;;-0.70;99.90;;;;;;5076901;28;20064;-66
2023/04/05 00:32:51;;;;;;;7.80;3.42;;;-0.70;99.90;;;;;;5084622;28;20032;-66
2023/04/05 00:35:16;;;;;;;8.10;4.38;;;-0.70;99.90;;;;;;5077941;28;20033;-66
2023/04/05 00:37:42;;;;;;;9.10;4.20;;;-0.70;99.90;;;;;;5082778;28;20619;-66
2023/04/05 00:40:09;;;;;;;7.13;3.50;;;-0.70;99.90;;;;;;5074011;28;20108;-66
2023/04/05 00:42:35;;;;;;;9.40;3.75;;;-0.80;99.90;;;;;;5085315;28;20474;-65
2023/04/05 00:45:01;;;;;;;6.22;3.20;;;-0.80;99.90;;;;;;5077318;28;20040;-66
2023/04/05 00:47:27;;;;;;;6.95;3.78;;;-0.80;99.90;;;;;;5084250;28;20099;-66
2023/04/05 00:49:53;;;;;;;10.18;3.83;;;-0.80;99.90;;;;;;5073933;28;20508;-66
2023/04/05 00:52:18;;;;;;;8.45;3.97;;;-0.90;99.90;;;;;;5073996;28;20040;-66
2023/04/05 00:54:44;;;;;;;8.63;3.53;;;-0.90;99.90;;;;;;5077671;28;20051;-66
2023/04/05 00:57:10;;;;;;;13.30;4.22;;;-0.90;99.90;;;;;;5080624;28;20434;-66
2023/04/05 00:59:36;;;;;;;9.32;4.60;;;-0.90;99.90;;;;;;5079163;28;20040;-66
2023/04/05 01:02:12;;;;;;;9.75;3.92;;;-0.90;99.90;;;;;;5085656;28;20033;-66
2023/04/05 01:04:48;;;;;;;9.65;3.90;;;-0.90;99.90;;;;;;5083341;28;20560;-66
2023/04/05 01:07:35;;;;;;;10.77;4.30;;;-1.00;99.90;;;;;;5080657;28;20094;-65
2023/04/05 01:10:04;;;;;;;7.13;4.35;;;-1.00;99.90;;;;;;5072855;28;20044;-66
2023/04/05 01:12:32;;;;;;;11.75;3.83;;;-1.00;99.90;;;;;;5076492;28;20394;-66
2023/04/05 01:14:59;;;;;;;7.07;3.60;;;-1.00;99.90;;;;;;5080753;28;20075;-66
2023/04/05 01:17:27;;;;;;;9.35;4.00;;;-1.00;99.90;;;;;;5082414;28;20548;-66
2023/04/05 01:19:59;;;;;;;9.30;4.15;;;-1.00;99.90;;;;;;5074908;28;20040;-66
2023/04/05 01:22:28;;;;;;;7.85;4.00;;;-1.00;99.90;;;;;;5083491;28;20040;-66
2023/04/05 01:25:36;;;;;;;10.57;4.93;;;-1.10;99.90;;;;;;5080058;28;20115;-65
2023/04/05 01:28:17;;;;;;;10.30;3.80;;;-1.10;99.90;;;;;;5074854;28;20488;-66
2023/04/05 01:30:50;;;;;;;10.90;4.80;;;-1.20;99.90;;;;;;5081921;28;20032;-66
2023/04/05 01:33:29;;;;;;;7.95;4.53;;;-1.20;99.90;;;;;;5082775;28;20101;-65
2023/04/05 01:36:01;;;;;;;7.70;3.83;;;-1.20;99.90;;;;;;5079093;28;20040;-65
2023/04/05 01:38:29;;;;;;;8.65;3.95;;;-1.20;99.90;;;;;;5080189;28;20542;-66
2023/04/05 01:40:55;;;;;;;8.80;4.93;;;-1.20;99.90;;;;;;5073997;28;20044;-65
2023/04/05 01:43:21;;;;;;;8.25;3.60;;;-1.20;99.90;;;;;;5082612;28;20582;-65
2023/04/05 01:45:47;;;;;;;8.18;4.40;;;-1.30;99.90;;;;;;5076134;28;20127;-66
2023/04/05 01:48:13;;;;;;;9.90;4.15;;;-1.30;99.90;;;;;;5081010;28;20040;-66
2023/04/05 01:50:39;;;;;;;7.75;4.10;;;-1.30;99.90;;;;;;5078564;28;20059;-65
2023/04/05 01:53:07;;;;;;;7.45;3.92;;;-1.40;99.90;;;;;;5084498;28;20032;-66
2023/04/05 01:55:32;;;;;;;11.43;4.10;;;-1.40;99.90;;;;;;5076912;28;20086;-65
2023/04/05 01:57:58;;;;;;;7.82;3.97;;;-1.40;99.90;;;;;;5079418;28;20434;-66
2023/04/05 02:00:24;;;;;;;6.40;3.50;;;-1.40;99.90;;;;;;5082275;28;20616;-65
2023/04/05 02:02:50;;;;;;;9.02;3.58;;;-1.40;99.90;;;;;;5085045;28;20040;-65
2023/04/05 02:05:15;;;;;;;7.35;3.80;;;-1.30;99.90;;;;;;5084366;28;20059;-66
2023/04/05 02:07:41;;;;;;;11.40;3.80;;;-1.30;99.90;;;;;;5083985;28;20032;-66
2023/04/05 02:10:07;;;;;;;12.70;4.07;;;-1.30;99.90;;;;;;5072351;28;20029;-65
2023/04/05 02:12:33;;;;;;;9.38;3.67;;;-1.40;99.90;;;;;;5078361;28;20058;-66
2023/04/05 02:14:59;;;;;;;10.27;4.05;;;-1.50;99.90;;;;;;5078213;28;20028;-66
2023/04/05 02:17:38;;;;;;;10.77;4.63;;;-1.50;99.90;;;;;;5077588;28;20123;-66
2023/04/05 02:20:07;;;;;;;9.68;3.88;;;-1.50;99.90;;;;;;5081102;28;20484;-66
2023/04/05 02:22:32;;;;;;;9.63;4.22;;;-1.50;99.90;;;;;;5084817;28;20066;-66
2023/04/05 02:24:58;;;;;;;9.90;4.35;;;-1.50;99.90;;;;;;5077895;28;20136;-65
2023/04/05 02:27:24;;;;;;;9.85;4.82;;;-1.50;99.90;;;;;;5077369;28;20049;-64
2023/04/05 02:29:51;;;;;;;10.13;4.10;;;-1.50;99.90;;;;;;5090363;28;20444;-65
2023/04/05 02:32:17;;;;;;;13.27;4.28;;;-1.50;99.90;;;;;;5074618;28;20047;-66
2023/04/05 02:34:43;;;;;;;7.68;3.75;;;-1.50;99.90;;;;;;5078682;28;20032;-66
2023/04/05 02:37:08;;;;;;;8.48;3.80;;;-1.50;99.90;;;;;;5083565;28;20040;-66
2023/04/05 02:39:34;;;;;;;9.63;4.70;;;-1.50;99.90;;;;;;5075677;28;20133;-65
2023/04/05 02:42:00;;;;;;;9.23;4.05;;;-1.60;99.90;;;;;;5075454;28;20067;-66
2023/04/05 02:44:25;;;;;;;7.20;3.63;;;-1.60;99.90;;;;;;5079027;28;20040;-65
2023/04/05 02:46:51;;;;;;;8.57;3.95;;;-1.60;99.90;;;;;;5079276;28;20036;-65
2023/04/05 02:49:17;;;;;;;10.05;4.13;;;-1.60;99.90;;;;;;5077416;28;20039;-65
2023/04/05 02:51:42;;;;;;;9.63;3.92;;;-1.70;99.90;;;;;;5077242;28;20113;-66
2023/04/05 02:54:08;;;;;;;10.82;3.88;;;-1.60;99.90;;;;;;5078483;28;20042;-66
2023/04/05 02:56:33;;;;;;;6.95;3.80;;;-1.60;99.90;;;;;;5078975;28;20040;-66
2023/04/05 02:58:59;;;;;;;14.18;4.72;;;-1.60;99.90;;;;;;5081041;28;20035;-66
2023/04/05 03:01:25;;;;;;;13.45;4.60;;;-1.70;99.90;;;;;;5079317;28;20114;-66
2023/04/05 03:03:51;;;;;;;10.40;4.60;;;-1.80;99.90;;;;;;5075895;28;20036;-66
2023/04/05 03:06:16;;;;;;;17.20;5.03;;;-1.80;99.90;;;;;;5078285;28;20046;-66
2023/04/05 03:08:47;;;;;;;10.95;4.55;;;-1.80;99.90;;;;;;5076550;28;20555;-66
2023/04/05 03:11:14;;;;;;;7.93;3.95;;;-1.70;99.90;;;;;;5079884;28;20040;-66
2023/04/05 03:13:40;;;;;;;12.15;4.53;;;-1.80;99.90;;;;;;5082025;28;20036;-65
2023/04/05 03:16:06;;;;;;;9.32;3.90;;;-1.80;99.90;;;;;;5078714;28;20044;-66
2023/04/05 03:18:31;;;;;;;10.18;4.30;;;-1.80;99.90;;;;;;5078103;28;20041;-67
2023/04/05 03:20:57;;;;;;;9.05;4.07;;;-1.80;99.90;;;;;;5083302;28;20036;-66
2023/04/05 03:23:28;;;;;;;8.07;4.00;;;-1.80;99.90;;;;;;5082392;28;20124;-66
2023/04/05 03:25:59;;;;;;;6.75;3.97;;;-1.80;99.90;;;;;;5077993;28;20405;-66
2023/04/05 03:28:25;;;;;;;9.45;4.30;;;-1.80;99.90;;;;;;5081788;28;20049;-66
2023/04/05 03:30:50;;;;;;;9.10;3.63;;;-1.80;99.90;;;;;;5083093;28;20415;-66
2023/04/05 03:33:17;;;;;;;10.70;4.00;;;-1.80;99.90;;;;;;5075867;28;20109;-66
2023/04/05 03:35:43;;;;;;;8.68;4.15;;;-1.80;99.90;;;;;;5083712;28;20663;-66
2023/04/05 03:38:08;;;;;;;10.13;4.05;;;-1.90;99.90;;;;;;5074617;28;20142;-66
2023/04/05 03:40:34;;;;;;;7.78;4.40;;;-1.80;99.90;;;;;;5079117;28;20121;-66
2023/04/05 03:43:00;;;;;;;13.48;4.85;;;-1.90;99.90;;;;;;5084171;28;20036;-66
2023/04/05 03:45:26;;;;;;;15.13;5.15;;;-1.90;99.90;;;;;;5078904;28;20070;-66
2023/04/05 03:47:52;;;;;;;12.32;4.63;;;-1.90;99.90;;;;;;5077944;28;20081;-66
2023/04/05 03:50:18;;;;;;;11.40;4.85;;;-2.00;99.90;;;;;;5082523;28;20043;-66
2023/04/05 03:52:43;;;;;;;10.82;4.65;;;-1.90;99.90;;;;;;5084535;28;20028;-66
2023/04/05 03:55:09;;;;;;;7.25;3.83;;;-1.90;99.90;;;;;;5077383;28;20074;-66
2023/04/05 03:57:37;;;;;;;8.13;4.15;;;-2.00;99.90;;;;;;5084522;28;20431;-66
2023/04/05 04:00:12;;;;;;;11.48;4.38;;;-2.00;99.90;;;;;;5086186;28;20040;-66
2023/04/05 04:02:48;;;;;;;11.02;4.47;;;-2.00;99.90;;;;;;5080564;28;20123;-66
2023/04/05 04:05:15;;;;;;;7.82;4.15;;;-2.00;99.90;;;;;;5085976;28;20165;-65
2023/04/05 04:07:42;;;;;;;10.98;4.32;;;-1.90;99.90;;;;;;5085414;28;20461;-66
2023/04/05 04:10:09;;;;;;;14.73;4.22;;;-1.90;99.90;;;;;;5081091;28;20581;-66
2023/04/05 04:12:35;;;;;;;11.63;5.47;;;-1.80;99.90;;;;;;5081375;28;20059;-66
2023/04/05 04:15:01;;;;;;;23.00;4.80;;;-1.80;99.90;;;;;;5081177;28;20043;-66
2023/04/05 04:17:29;;;;;;;12.27;4.40;;;-1.80;99.90;;;;;;5075723;28;20052;-66
2023/04/05 04:19:56;;;;;;;12.27;4.18;;;-1.80;99.90;;;;;;5084083;28;20039;-66
2023/04/05 04:22:25;;;;;;;6.90;3.70;;;-1.80;99.90;;;;;;5087020;28;20044;-65
2023/04/05 04:24:54;;;;;;;7.22;3.85;;;-1.70;99.90;;;;;;5083876;28;20455;-66
2023/04/05 04:27:20;;;;;;;10.20;4.15;;;-1.70;99.90;;;;;;5083533;28;20043;-66
2023/04/05 04:29:46;;;;;;;9.23;4.40;;;-1.80;99.90;;;;;;5078687;28;20036;-65
2023/04/05 04:32:14;;;;;;;10.90;4.20;;;-1.70;99.90;;;;;;5086938;28;20380;-65
2023/04/05 04:34:43;;;;;;;10.43;4.00;;;-1.80;99.90;;;;;;5078217;28;20075;-65
2023/04/05 04:37:21;;;;;;;12.90;4.88;;;-1.80;99.90;;;;;;5082155;28;20044;-65
2023/04/05 04:39:47;;;;;;;12.75;5.10;;;-1.90;99.90;;;;;;5079866;28;20055;-66
2023/04/05 04:42:18;;;;;;;8.10;4.43;;;-1.90;99.90;;;;;;5083181;28;20036;-66
2023/04/05 04:44:47;;;;;;;8.82;4.22;;;-1.90;99.90;;;;;;5078075;28;20036;-65
2023/04/05 04:47:16;;;;;;;9.50;4.03;;;-1.90;99.90;;;;;;5086808;28;20550;-66
2023/04/05 04:49:42;;;;;;;8.07;4.43;;;-1.90;99.90;;;;;;5078987;28;20044;-66
2023/04/05 04:52:08;;;;;;;8.85;4.18;;;-1.90;99.90;;;;;;5082280;28;20043;-65
2023/04/05 04:54:35;;;;;;;14.98;5.07;;;-2.00;99.90;;;;;;5078607;28;20365;-66
2023/04/05 04:57:01;;;;;;;10.20;4.75;;;-2.00;99.90;;;;;;5085923;28;20054;-66
2023/04/05 04:59:28;;;;;;;9.25;4.47;;;-2.00;99.90;;;;;;5080040;28;20036;-65
2023/04/05 05:01:54;;;;;;;7.80;4.53;;;-2.00;99.90;;;;;;5084306;28;20133;-65
2023/04/05 05:04:20;;;;;;;11.35;4.47;;;-2.00;99.90;;;;;;5078102;28;20449;-65
2023/04/05 05:06:49;;;;;;;10.98;4.50;;;-2.00;99.90;;;;;;5086210;28;20127;-65
2023/04/05 05:09:14;;;;;;;12.52;4.50;;;-2.00;99.90;;;;;;5077133;28;20032;-65
2023/04/05 05:11:40;;;;;;;9.35;4.00;;;-2.00;99.90;;;;;;5080887;28;20052;-66
2023/04/05 05:14:06;;;;;;;7.47;4.40;;;-2.00;99.90;;;;;;5079318;28;20062;-65
2023/04/05 05:16:32;;;;;;;12.52;4.90;;;-2.00;99.90;;;;;;5084036;28;20524;-65
2023/04/05 05:18:58;;;;;;;6.85;4.05;;;-1.90;99.90;;;;;;5082705;28;20089;-64
2023/04/05 05:21:25;;;;;;;12.02;4.32;;;-1.80;99.90;;;;;;5086838;28;20047;-65
2023/04/05 05:23:51;;;;;;;10.77;5.00;;;-1.20;99.90;;;;;;5082316;28;20081;-66
2023/04/05 05:26:16;;;;;;;9.85;4.07;;;-0.30;99.90;;;;;;5077336;28;20048;-68
2023/04/05 05:28:42;;;;;;;8.32;4.18;;;0.50;99.90;;;;;;5081672;28;20024;-66
2023/04/05 05:31:08;;;;;;;17.88;4.05;;;1.10;99.90;;;;;;5084531;28;20094;-64
2023/04/05 05:33:33;;;;;;;9.05;4.18;;;1.20;99.90;;;;;;5083275;28;20036;-68
2023/04/05 05:35:59;;;;;;;10.10;4.32;;;1.20;99.90;;;;;;5078265;28;20385;-63
2023/04/05 05:38:25;;;;;;;17.25;5.05;;;1.80;99.90;;;;;;5081189;28;20040;-66
2023/04/05 05:40:57;;;;;;;9.43;4.38;;;2.50;99.90;;;;;;5077368;28;20411;-66
2023/04/05 05:43:23;;;;;;;10.70;4.38;;;3.10;99.90;;;;;;5081553;28;20206;-66
2023/04/05 05:45:48;;;;;;;9.85;4.45;;;2.90;99.90;;;;;;5074833;28;20715;-70
2023/04/05 05:48:15;;;;;;;13.13;4.82;;;2.50;99.90;;;;;;5083737;28;20484;-66
2023/04/05 05:50:40;;;;;;;10.70;4.75;;;2.40;99.90;;;;;;5074320;28;20396;-67
2023/04/05 05:53:06;;;;;;;10.15;4.75;;;1.90;99.90;;;;;;5084593;28;20038;-68
2023/04/05 05:55:32;;;;;;;11.13;4.78;;;1.60;99.90;;;;;;5072459;28;20047;-67
2023/04/05 05:57:58;;;;;;;19.40;8.18;;;1.60;99.90;;;;;;5083942;28;20401;-65
2023/04/05 06:00:24;;;;;;;29.42;13.10;;;1.60;99.90;;;;;;5076826;28;20480;-67
2023/04/05 06:02:51;;;;;;;31.75;12.90;;;1.60;99.90;;;;;;5084362;28;20032;-67
2023/04/05 06:05:16;;;;;;;24.40;11.95;;;1.60;99.90;;;;;;5076548;28;20028;-66
2023/04/05 06:07:42;;;;;;;28.17;13.82;;;2.00;99.90;;;;;;5082688;28;20043;-66
2023/04/05 06:10:08;;;;;;;42.42;18.58;;;2.70;99.90;;;;;;5076638;28;20036;-66
2023/04/05 06:12:34;;;;;;;39.85;15.73;;;2.80;99.90;;;;;;5083345;28;20089;-66
2023/04/05 06:15:00;;;;;;;64.00;28.65;;;2.60;99.90;;;;;;5075045;28;20413;-66
2023/04/05 06:17:26;;;;;;;64.35;28.52;;;2.50;99.90;;;;;;5084093;28;20032;-66
2023/04/05 06:19:51;;;;;;;31.60;14.63;;;2.30;99.90;;;;;;5075208;28;20032;-66
2023/04/05 06:22:18;;;;;;;24.10;10.75;;;2.40;99.90;;;;;;5081321;28;20127;-68
2023/04/05 06:24:44;;;;;;;24.42;10.75;;;2.30;99.90;;;;;;5076533;28;20036;-67
2023/04/05 06:27:09;;;;;;;26.33;10.63;;;2.30;99.90;;;;;;5076684;28;20415;-67
2023/04/05 06:29:35;;;;;;;21.17;10.15;;;2.10;99.90;;;;;;5076627;28;20453;-65
2023/04/05 06:32:01;;;;;;;27.13;9.82;;;2.10;99.90;;;;;;5078935;28;20043;-67
2023/04/05 06:34:26;;;;;;;22.58;8.63;;;2.30;99.90;;;;;;5076706;28;20041;-68
2023/04/05 06:36:55;;;;;;;19.45;8.98;;;2.40;99.90;;;;;;5083365;28;20039;-66
2023/04/05 06:39:21;;;;;;;18.50;7.85;;;2.60;99.90;;;;;;5076990;28;20032;-66
2023/04/05 06:41:46;;;;;;;19.00;7.50;;;2.60;99.90;;;;;;5080959;28;20035;-66
2023/04/05 06:44:12;;;;;;;11.35;5.78;;;2.40;99.90;;;;;;5077720;28;20438;-64
2023/04/05 06:46:38;;;;;;;13.20;6.25;;;2.50;99.90;;;;;;5078478;28;20044;-66
2023/04/05 06:49:03;;;;;;;20.85;6.43;;;2.60;99.90;;;;;;5078488;28;20036;-67
2023/04/05 06:51:29;;;;;;;14.73;6.53;;;2.80;99.90;;;;;;5074223;28;20072;-66
2023/04/05 06:53:55;;;;;;;14.15;5.57;;;3.70;99.90;;;;;;5078772;28;20042;-66
2023/04/05 06:56:22;;;;;;;12.88;5.47;;;3.90;99.90;;;;;;5084743;28;20039;-66
2023/04/05 06:58:48;;;;;;;10.82;5.38;;;3.60;99.90;;;;;;5080068;28;20459;-67
2023/04/05 07:01:14;;;;;;;14.23;4.90;;;3.50;99.90;;;;;;5074178;28;20498;-65
2023/04/05 07:03:40;;;;;;;15.05;4.85;;;3.50;99.90;;;;;;5081980;28;20764;-67
2023/04/05 07:06:05;;;;;;;12.88;4.82;;;3.90;99.90;;;;;;5077434;28;20590;-66
2023/04/05 07:08:32;;;;;;;19.83;5.35;;;4.60;99.90;;;;;;5081251;28;20042;-66
2023/04/05 07:10:57;;;;;;;14.35;5.00;;;4.70;99.90;;;;;;5074207;28;20080;-65
2023/04/05 07:13:24;;;;;;;11.88;5.00;;;4.30;99.90;;;;;;5081814;28;20757;-66
2023/04/05 07:15:50;;;;;;;14.40;6.07;;;4.10;99.90;;;;;;5083770;28;20098;-67
2023/04/05 07:18:17;;;;;;;22.05;6.47;;;4.00;99.90;;;;;;5084108;28;20036;-66
2023/04/05 07:20:46;;;;;;;11.40;6.35;;;3.90;99.90;;;;;;5074773;28;20051;-66
2023/04/05 07:23:12;;;;;;;11.45;6.55;;;3.90;99.90;;;;;;5082384;28;20036;-68
2023/04/05 07:25:41;;;;;;;13.38;5.70;;;4.20;99.90;;;;;;5077953;28;20028;-67
2023/04/05 07:28:06;;;;;;;13.65;5.93;;;4.40;99.60;;;;;;5084895;28;20044;-67
2023/04/05 07:30:32;;;;;;;;;;;4.50;99.80;;;;;;5075690;28;20040;-66
2023/04/05 07:32:58;;;;;;;10.10;5.07;;;4.60;99.50;;;;;;5087265;28;19922;-67
2023/04/05 07:35:23;;;;;;;8.18;4.53;;;5.00;98.80;;;;;;5084829;28;20516;-66
2023/04/05 07:37:51;;;;;;;8.55;4.32;;;4.90;99.30;;;;;;5085787;28;20032;-66
2023/04/05 07:40:17;;;;;;;9.15;4.07;;;5.20;97.30;;;;;;5078646;28;20041;-68
2023/04/05 07:42:42;;;;;;;;;;;5.20;95.20;;;;;;5088417;28;20081;-66
2023/04/05 07:45:08;;;;;;;6.75;3.70;;;5.00;95.10;;;;;;5076851;28;20011;-67
2023/04/05 07:47:34;;;;;;;;;;;5.30;94.40;;;;;;5087116;28;20040;-67
2023/04/05 07:50:00;;;;;;;7.32;3.83;;;5.20;93.50;;;;;;5080468;28;19983;-67
2023/04/05 07:52:26;;;;;;;;;;;5.60;93.00;;;;;;5088972;28;20032;-67
2023/04/05 07:54:51;;;;;;;5.40;3.33;;;6.10;92.90;;;;;;5081510;28;19922;-68
2023/04/05 07:57:18;;;;;;;6.07;3.75;;;6.50;90.70;;;;;;5086539;28;20667;-66
2023/04/05 07:59:44;;;;;;;5.38;3.10;;;7.10;90.20;;;;;;5080463;28;20064;-68
2023/04/05 08:02:10;;;;;;;5.78;3.50;;;7.10;88.70;;;;;;5083480;28;20491;-68
2023/04/05 08:04:35;;;;;;;;;;;7.80;89.20;;;;;;5079389;28;20163;-68
2023/04/05 08:07:01;;;;;;;7.85;3.25;;;8.50;84.50;;;;;;5082580;28;19924;-62
2023/04/05 08:09:27;;;;;;;;;;;9.30;82.30;;;;;;5083775;28;20461;-62
2023/04/05 08:11:52;;;;;;;8.48;3.08;;;10.40;75.60;;;;;;5077604;28;20479;-61
2023/04/05 08:14:18;;;;;;;;;;;10.90;71.90;;;;;;5080108;28;20038;-60
2023/04/05 08:16:44;;;;;;;9.40;3.42;;;11.90;69.90;;;;;;5085011;28;19916;-59
2023/04/05 08:19:09;;;;;;;;;;;13.00;68.20;;;;;;5083379;28;20185;-63
2023/04/05 08:21:38;;;;;;;4.30;2.40;;;13.20;61.50;;;;;;5084227;28;19931;-61
2023/04/05 08:24:03;;;;;;;9.90;2.97;;;13.60;63.70;;;;;;5081231;28;20408;-60
2023/04/05 08:26:29;;;;;;;;;;;13.70;58.70;;;;;;5095217;28;20048;-61
2023/04/05 08:28:55;;;;;;;9.15;2.90;;;13.80;58.60;;;;;;5080514;28;19924;-61
2023/04/05 08:31:20;;;;;;;;;;;13.50;59.20;;;;;;5076996;28;20039;-62
2023/04/05 08:33:46;;;;;;;6.53;2.88;;;13.10;57.60;;;;;;5083770;28;19927;-61
2023/04/05 08:36:11;;;;;;;;;;;13.40;63.60;;;;;;5078264;28;20044;-62
2023/04/05 08:38:37;;;;;;;6.13;3.78;;;12.60;57.70;;;;;;5083694;28;19923;-59
2023/04/05 08:41:23;;;;;;;5.45;3.72;;;11.00;61.00;;;;;;5077374;28;20516;-61
2023/04/05 08:44:01;;;;;;;7.45;4.10;;;8.80;70.20;;;;;;5075942;28;20629;-59
2023/04/05 08:46:30;;;;;;;8.73;4.63;;;7.60;74.90;;;;;;5082686;28;20051;-61
2023/04/05 08:49:00;;;;;;;9.30;4.70;;;6.80;78.80;;;;;;5083450;28;20498;-61
2023/04/05 08:51:27;;;;;;;8.05;4.40;;;6.80;78.20;;;;;;5081930;28;20471;-62
2023/04/05 08:53:52;;;;;;;10.25;4.57;;;6.70;77.80;;;;;;5083200;28;20028;-61
2023/04/05 08:56:20;;;;;;;;;;;6.50;79.80;;;;;;5078874;28;20051;-62
2023/04/05 08:58:53;;;;;;;8.73;4.57;;;6.30;80.20;;;;;;5077757;28;19920;-61
2023/04/05 09:01:19;;;;;;;9.60;4.60;;;6.30;84.20;;;;;;5081392;28;20044;-60
2023/04/05 09:03:47;;;;;;;10.57;4.70;;;6.10;84.00;;;;;;5085528;28;20115;-60
2023/04/05 09:06:14;;;;;;;7.22;4.25;;;6.30;85.30;;;;;;5087849;28;20044;-60
2023/04/05 09:08:40;;;;;;;10.40;5.00;;;6.00;82.20;;;;;;5084269;28;20073;-61
2023/04/05 09:11:06;;;;;;;11.52;4.50;;;5.80;84.80;;;;;;5082563;28;20121;-61
2023/04/05 09:13:31;;;;;;;;;;;5.40;88.80;;;;;;5083284;28;20968;-61
2023/04/05 09:16:01;;;;;;;8.60;3.95;;;5.60;89.60;;;;;;5077139;28;19923;-61
2023/04/05 09:18:26;;;;;;;6.43;4.50;;;5.80;88.50;;;;;;5082508;28;20036;-61
2023/04/05 09:21:01;;;;;;;11.25;5.18;;;5.90;87.50;;;;;;5076209;28;20032;-61
2023/04/05 09:23:27;;;;;;;8.60;4.63;;;6.00;87.40;;;;;;5083872;28;20072;-61
2023/04/05 09:25:53;;;;;;;10.38;4.75;;;5.70;88.90;;;;;;5080770;28;20051;-61
2023/04/05 09:28:19;;;;;;;10.32;5.28;;;5.60;85.30;;;;;;5084067;28;20032;-61
2023/04/05 09:30:46;;;;;;;10.93;4.72;;;5.50;86.20;;;;;;5074100;28;20028;-62
2023/04/05 09:33:17;;;;;;;8.30;4.20;;;5.50;85.90;;;;;;5084975;28;20051;-60
2023/04/05 09:35:43;;;;;;;11.70;4.68;;;5.70;85.30;;;;;;5075138;28;20085;-59
2023/04/05 09:38:09;;;;;;;7.63;4.68;;;5.80;87.10;;;;;;5084329;28;20037;-62
2023/04/05 09:40:44;;;;;;;8.70;4.50;;;6.10;88.00;;;;;;5074701;28;20040;-62
2023/04/05 09:43:11;;;;;;;8.07;4.47;;;6.00;87.40;;;;;;5079918;28;20044;-62
2023/04/05 09:45:41;;;;;;;10.55;4.47;;;6.10;87.70;;;;;;5078159;28;20273;-62
2023/04/05 09:48:08;;;;;;;6.43;4.60;;;6.50;89.10;;;;;;5082426;28;20039;-62
2023/04/05 09:50:34;;;;;;;8.07;4.57;;;6.90;87.60;;;;;;5076828;28;20127;-62
2023/04/05 09:53:18;;;;;;;7.68;4.85;;;7.10;87.30;;;;;;5081656;28;20035;-64
2023/04/05 09:55:44;;;;;;;8.63;4.63;;;7.30;85.50;;;;;;5080320;28;20040;-61
2023/04/05 09:58:12;;;;;;;;;;;7.20;80.50;;;;;;5084102;28;20037;-63
2023/04/05 10:00:51;;;;;;;8.20;4.68;;;6.70;84.00;;;;;;5082257;28;19916;-63
2023/04/05 10:03:18;;;;;;;10.15;5.13;;;6.80;86.50;;;;;;5081072;28;20047;-62
2023/04/05 10:05:44;;;;;;;8.48;4.30;;;6.80;82.10;;;;;;5076897;28;20047;-61
2023/04/05 10:08:10;;;;;;;;;;;7.00;85.60;;;;;;5083549;28;20100;-63
2023/04/05 10:10:44;;;;;;;13.98;6.47;;;7.00;82.70;;;;;;5077273;28;19924;-62
2023/04/05 10:13:11;;;;;;;11.82;6.45;;;6.90;86.60;;;;;;5079196;28;20040;-60
2023/04/05 10:15:36;;;;;;;10.57;5.78;;;6.70;82.90;;;;;;5072607;28;20701;-62
2023/04/05 10:18:04;;;;;;;;;;;6.50;84.40;;;;;;5084308;28;20040;-61
2023/04/05 10:20:32;;;;;;;9.02;5.25;;;6.00;85.20;;;;;;5073620;28;20366;-61
2023/04/05 10:23:27;;;;;;;18.42;7.25;;;6.00;85.70;;;;;;5076592;28;20077;-61
2023/04/05 10:25:53;;;;;;;11.43;4.97;;;6.20;85.50;;;;;;5067204;28;20049;-60
2023/04/05 10:28:36;;;;;;;9.70;5.53;;;5.90;86.10;;;;;;5075446;28;20043;-61
2023/04/05 10:31:23;;;;;;;10.85;5.78;;;5.90;87.60;;;;;;5076669;28;20059;-61
2023/04/05 10:34:04;;;;;;;11.13;5.28;;;6.30;87.50;;;;;;5071711;28;20098;-62
2023/04/05 10:36:47;;;;;;;8.63;5.13;;;6.50;85.80;;;;;;5084492;28;20047;-62
2023/04/05 10:39:25;;;;;;;8.43;4.72;;;6.70;87.30;;;;;;5071875;28;20040;-61
2023/04/05 10:42:06;;;;;;;9.55;5.28;;;6.30;85.40;;;;;;5075217;28;20479;-63
2023/04/05 10:44:35;;;;;;;9.23;5.20;;;6.40;85.50;;;;;;5074214;28;20044;-61
2023/04/05 10:47:02;;;;;;;9.18;5.43;;;6.60;85.40;;;;;;5082647;28;20572;-62
2023/04/05 10:49:37;;;;;;;7.63;4.70;;;6.90;86.80;;;;;;5075550;28;20037;-61
2023/04/05 10:52:04;;;;;;;9.82;5.55;;;7.20;87.90;;;;;;5077926;28;20075;-61
2023/04/05 10:54:35;;;;;;;9.32;5.22;;;7.40;83.20;;;;;;5070712;28;20044;-59
2023/04/05 10:57:04;;;;;;;11.40;5.22;;;7.50;83.80;;;;;;5083663;28;20461;-59
2023/04/05 10:59:30;;;;;;;8.70;4.80;;;7.50;83.70;;;;;;5077201;28;20048;-61
2023/04/05 11:01:57;;;;;;;12.95;5.40;;;7.40;86.40;;;;;;5078431;28;20726;-62
2023/04/05 11:04:23;;;;;;;10.00;5.35;;;7.60;90.20;;;;;;5082237;28;20039;-62
2023/04/05 11:07:08;;;;;;;;;;;7.80;87.70;;;;;;5085011;28;20047;-62
2023/04/05 11:09:34;;;;;;;6.45;4.80;;;8.00;84.60;;;;;;5076081;28;19920;-60
2023/04/05 11:12:00;;;;;;;8.57;4.70;;;8.00;80.40;;;;;;5080230;28;20480;-62
2023/04/05 11:14:36;;;;;;;;;;;8.10;81.40;;;;;;5077330;28;20055;-63
2023/04/05 11:17:02;;;;;;;10.48;5.20;;;7.60;78.80;;;;;;5078874;28;20329;-63
2023/04/05 11:19:46;;;;;;;9.98;5.35;;;7.30;82.10;;;;;;5079121;28;20716;-62
2023/04/05 11:22:13;;;;;;;8.38;4.95;;;6.80;83.30;;;;;;5079970;28;20495;-62
2023/04/05 11:24:55;;;;;;;10.80;5.28;;;6.40;83.10;;;;;;5081212;28;20373;-63
2023/04/05 11:27:31;;;;;;;7.22;4.97;;;6.50;83.10;;;;;;5081166;28;20044;-63
2023/04/05 11:29:58;;;;;;;8.48;4.93;;;6.40;84.30;;;;;;5073983;28;20040;-66
2023/04/05 11:32:38;;;;;;;10.57;4.82;;;6.50;88.00;;;;;;5080685;28;20576;-62
2023/04/05 11:35:06;;;;;;;9.50;5.05;;;6.70;86.80;;;;;;5077726;28;20515;-61
2023/04/05 11:37:54;;;;;;;10.40;5.05;;;7.10;90.10;;;;;;5082663;28;20040;-63
2023/04/05 11:40:29;;;;;;;10.45;4.95;;;7.50;86.40;;;;;;5073619;28;20040;-62
2023/04/05 11:43:13;;;;;;;7.90;4.60;;;7.60;83.60;;;;;;5082711;28;20044;-60
2023/04/05 11:45:43;;;;;;;9.10;5.47;;;7.60;82.10;;;;;;5072556;28;20556;-63
2023/04/05 11:48:13;;;;;;;10.88;5.40;;;7.80;82.50;;;;;;5082165;28;20055;-60
2023/04/05 11:50:44;;;;;;;11.40;5.25;;;7.90;80.60;;;;;;5083453;28;20048;-65
2023/04/05 11:53:14;;;;;;;14.15;5.22;;;7.70;81.00;;;;;;5079624;28;20071;-62
2023/04/05 11:55:45;;;;;;;7.57;4.93;;;7.70;79.80;;;;;;5077006;28;20702;-62
2023/04/05 11:58:15;;;;;;;11.75;4.80;;;7.80;80.80;;;;;;5077696;28;20032;-60
2023/04/05 12:00:42;;;;;;;9.52;5.35;;;8.00;83.60;;;;;;5078061;28;20101;-57
2023/04/05 12:03:14;;;;;;;8.05;4.65;;;8.20;81.60;;;;;;5082148;28;20036;-60
2023/04/05 12:05:48;;;;;;;7.85;4.68;;;8.20;79.10;;;;;;5075766;28;20447;-61
2023/04/05 12:08:13;;;;;;;7.63;4.57;;;8.20;79.50;;;;;;5081596;28;20098;-61
2023/04/05 12:10:39;;;;;;;;;;;8.10;76.10;;;;;;5076994;28;20040;-61
2023/04/05 12:13:05;;;;;;;13.23;6.13;;;8.00;77.30;;;;;;5083732;28;19939;-61
2023/04/05 12:15:30;;;;;;;8.77;4.93;;;7.90;79.50;;;;;;5075044;28;20041;-60
2023/04/05 12:17:56;;;;;;;;;;;7.70;78.50;;;;;;5084358;28;20055;-61
2023/04/05 12:20:24;;;;;;;12.45;4.55;;;7.60;79.20;;;;;;5082420;28;19943;-61
2023/04/05 12:22:52;;;;;;;7.10;4.28;;;7.50;79.70;;;;;;5078571;28;20035;-62
2023/04/05 12:25:19;;;;;;;8.50;4.50;;;7.40;79.80;;;;;;5081096;28;20693;-63
2023/04/05 12:27:45;;;;;;;9.45;5.05;;;7.40;80.90;;;;;;5083735;28;20043;-61
2023/04/05 12:30:19;;;;;;;7.22;4.43;;;7.20;81.90;;;;;;5076207;28;20086;-60
2023/04/05 12:32:55;;;;;;;8.10;5.15;;;7.30;80.20;;;;;;5086779;28;20502;-62
2023/04/05 12:35:31;;;;;;;7.60;4.78;;;7.10;80.90;;;;;;5082282;28;20760;-61
2023/04/05 12:37:58;;;;;;;;;;;7.30;82.90;;;;;;5087085;28;20048;-61
2023/04/05 12:40:24;;;;;;;7.80;4.55;;;7.30;80.70;;;;;;5075454;28;19924;-61
2023/04/05 12:42:50;;;;;;;10.73;4.65;;;7.50;80.30;;;;;;5085552;28;20052;-62
2023/04/05 12:45:17;;;;;;;8.43;4.57;;;7.50;83.60;;;;;;5084717;28;20419;-62
2023/04/05 12:47:58;;;;;;;9.52;5.45;;;7.70;83.10;;;;;;5086407;28;20036;-61
2023/04/05 12:50:29;;;;;;;8.98;5.15;;;7.70;80.50;;;;;;5076493;28;20047;-61
2023/04/05 12:52:57;;;;;;;11.88;4.90;;;7.60;79.40;;;;;;5086489;28;20111;-62
2023/04/05 12:55:23;;;;;;;12.50;5.60;;;7.40;79.40;;;;;;5079604;28;20109;-62
2023/04/05 12:57:54;;;;;;;9.63;5.15;;;7.30;78.80;;;;;;5083911;28;20105;-63